Time;durP1;ratioP1;P1;durP2;ratioP2;P2;SDS_P1;SDS_P2;PMS_P1;PMS_P2;Temp;Humidity;BMP_temperature;BMP_pressure;BME280_temperature;BME280_humidity;BME280_pressure;Samples;Min_cycle;Max_cycle;Signal;HPM_P1;HPM_P2
2023/08/16 00:01:13;;;;;;;;;;;;;;;23.80;62.21;95954.03;10405664;28;1961;-68
2023/08/16 00:06:13;;;;;;;;;;;;;;;23.86;62.25;95937.03;10401922;28;2106;-68
2023/08/16 00:11:14;;;;;;;;;;;;;;;23.87;61.40;95948.38;10403833;28;1958;-68
2023/08/16 00:16:14;;;;;;;;;;;;;;;23.89;61.81;95944.38;10409717;28;1938;-69
2023/08/16 00:21:17;;;;;;;;;;;;;;;23.89;61.35;95944.38;10413335;28;2052;-68
2023/08/16 00:26:17;;;;;;;;;;;;;;;23.89;61.35;95944.38;10414132;28;2256;-68
2023/08/16 00:31:18;;;;;;;;;;;;;;;23.88;61.30;95942.00;10406711;28;1989;-68
2023/08/16 00:36:18;;;;;;;;;;;;;;;23.78;61.25;95934.25;10405570;28;2085;-68
2023/08/16 00:41:19;;;;;;;;;;;;;;;23.70;61.13;95927.72;10396090;28;4546;-68
2023/08/16 00:46:19;;;;;;;;;;;;;;;23.74;61.43;95931.38;10408538;28;1895;-67
2023/08/16 00:51:19;;;;;;;;;;;;;;;23.78;61.11;95932.34;10402328;28;2019;-68
2023/08/16 00:56:20;;;;;;;;;;;;;;;23.79;61.09;95926.00;10405994;28;2013;-67
2023/08/16 01:01:20;;;;;;;;;;;;;;;23.77;60.72;95920.22;10399215;28;2080;-69
2023/08/16 01:06:20;;;;;;;;;;;;;;;23.76;60.88;95915.97;10403911;28;1947;-69
2023/08/16 01:11:27;;;;;;;;;;;;;;;23.66;60.76;95910.84;10402527;28;1974;-69
2023/08/16 01:16:28;;;;;;;;;;;;;;;23.71;60.67;95918.72;10378301;28;2168;-69
2023/08/16 01:21:28;;;;;;;;;;;;;;;23.64;60.79;95913.00;10400845;28;1967;-69
2023/08/16 01:26:32;;;;;;;;;;;;;;;23.62;60.57;95912.50;10403851;28;1968;-69
2023/08/16 01:31:32;;;;;;;;;;;;;;;23.60;60.61;95912.00;10401054;28;2374;-68
2023/08/16 01:36:32;;;;;;;;;;;;;;;23.55;60.57;95917.41;10388265;28;1971;-68
2023/08/16 01:41:38;;;;;;;;;;;;;;;23.54;60.46;95910.50;10395541;28;4575;-69
2023/08/16 01:46:39;;;;;;;;;;;;;;;23.50;60.40;95914.03;10407611;28;1974;-69
2023/08/16 01:51:40;;;;;;;;;;;;;;;23.44;60.66;95906.19;10391056;28;2085;-68
2023/08/16 01:56:40;;;;;;;;;;;;;;;23.39;60.33;95902.81;10400229;28;2044;-68
2023/08/16 02:01:41;;;;;;;;;;;;;;;23.40;60.48;95918.41;10412157;28;2187;-69
2023/08/16 02:06:41;;;;;;;;;;;;;;;23.39;60.23;95913.38;10402021;28;1916;-68
2023/08/16 02:11:41;;;;;;;;;;;;;;;;;;10409154;28;1892;-68
2023/08/16 02:16:42;;;;;;;;;;;;;;;23.33;59.93;95907.38;10411482;28;1907;-69
2023/08/16 02:21:42;;;;;;;;;;;;;;;23.23;60.11;95904.88;10405988;28;2006;-69
2023/08/16 02:26:42;;;;;;;;;;;;;;;23.13;60.12;95912.94;10407189;28;2384;-69
2023/08/16 02:31:42;;;;;;;;;;;;;;;23.20;60.03;95912.59;10395103;28;2196;-67
2023/08/16 02:36:43;;;;;;;;;;;;;;;23.13;60.27;95904.22;10401302;28;2061;-68
2023/08/16 02:41:43;;;;;;;;;;;;;;;23.17;59.96;95899.94;10408836;28;4521;-69
2023/08/16 02:46:43;;;;;;;;;;;;;;;23.16;59.79;95901.78;10390449;28;1991;-68
2023/08/16 02:51:43;;;;;;;;;;;;;;;23.17;60.10;95902.56;10398817;28;1965;-69
2023/08/16 02:56:44;;;;;;;;;;;;;;;23.18;59.74;95904.94;10393495;28;2019;-69
2023/08/16 03:01:44;;;;;;;;;;;;;;;23.12;59.82;95900.78;10400035;28;1980;-69
2023/08/16 03:06:44;;;;;;;;;;;;;;;23.04;59.88;95911.22;10404120;28;1995;-68
2023/08/16 03:11:44;;;;;;;;;;;;;;;23.05;59.61;95904.84;10399222;28;1993;-69
2023/08/16 03:16:46;;;;;;;;;;;;;;;23.05;59.39;95920.72;10408748;28;1957;-69
2023/08/16 03:21:46;;;;;;;;;;;;;;;23.04;59.62;95912.00;10423109;28;2330;-69
2023/08/16 03:26:47;;;;;;;;;;;;;;;23.01;59.58;95920.50;10428213;28;2372;-69
2023/08/16 03:31:47;;;;;;;;;;;;;;;23.03;59.28;95915.72;10414519;28;2169;-70
2023/08/16 03:36:47;;;;;;;;;;;;;;;23.06;59.47;95919.66;10398647;28;2082;-69
2023/08/16 03:41:47;;;;;;;;;;;;;;;22.97;59.39;95935.38;10407727;28;4518;-69
2023/08/16 03:46:48;;;;;;;;;;;;;;;23.07;59.24;95937.09;10406853;28;1936;-70
2023/08/16 03:51:48;;;;;;;;;;;;;;;23.11;59.13;95941.53;10413729;28;2225;-70
2023/08/16 03:56:49;;;;;;;;;;;;;;;23.13;59.07;95946.53;10415511;28;1946;-70
2023/08/16 04:01:49;;;;;;;;;;;;;;;23.14;59.18;95950.75;10410969;28;1987;-69
2023/08/16 04:06:50;;;;;;;;;;;;;;;23.14;58.99;95956.81;10407778;28;2041;-69
2023/08/16 04:11:51;;;;;;;;;;;;;;;23.15;58.97;95962.91;10404217;28;1951;-69
2023/08/16 04:16:51;;;;;;;;;;;;;;;23.16;58.98;95969.78;10402884;28;1972;-69
2023/08/16 04:21:51;;;;;;;;;;;;;;;23.20;58.88;95965.47;10402634;28;2379;-69
2023/08/16 04:26:52;;;;;;;;;;;;;;;23.22;59.04;95969.44;10403450;28;2021;-70
2023/08/16 04:31:52;;;;;;;;;;;;;;;23.20;59.16;95976.06;10407187;28;1959;-69
2023/08/16 04:36:52;;;;;;;;;;;;;;;23.19;58.87;95993.00;10403044;28;1998;-69
2023/08/16 04:41:53;;;;;;;;;;;;;;;23.20;59.09;95991.94;10402497;28;4493;-69
2023/08/16 04:46:53;;;;;;;;;;;;;;;23.19;58.87;95995.63;10404287;28;1981;-70
2023/08/16 04:51:54;;;;;;;;;;;;;;;23.20;58.99;95991.94;10409000;28;1966;-70
2023/08/16 04:56:54;;;;;;;;;;;;;;;23.20;59.28;95994.56;10408103;28;1945;-71
2023/08/16 05:01:54;;;;;;;;;;;;;;;23.20;59.28;96002.50;10401316;28;1977;-69
2023/08/16 05:06:54;;;;;;;;;;;;;;;23.20;59.16;95994.56;10404692;28;2177;-70
2023/08/16 05:11:55;;;;;;;;;;;;;;;23.20;58.64;96007.81;10403971;28;1887;-69
2023/08/16 05:16:55;;;;;;;;;;;;;;;23.18;59.10;96015.22;10404013;28;2408;-69
2023/08/16 05:21:55;;;;;;;;;;;;;;;23.18;59.01;96009.94;10401415;28;1953;-70
2023/08/16 05:26:56;;;;;;;;;;;;;;;23.20;58.69;96013.09;10402330;28;2122;-71
2023/08/16 05:31:57;;;;;;;;;;;;;;;23.16;58.93;96022.66;10402792;28;1880;-71
2023/08/16 05:36:57;;;;;;;;;;;;;;;23.17;58.88;96027.66;10401166;28;1915;-70
2023/08/16 05:41:57;;;;;;;;;;;;;;;23.21;58.54;96035.81;10376679;28;1995;-70
2023/08/16 05:46:58;;;;;;;;;;;;;;;23.23;58.74;96034.47;10384463;28;1908;-62
2023/08/16 05:51:59;;;;;;;;;;;;;;;23.13;58.83;96039.06;10390225;28;1847;-67
2023/08/16 05:56:59;;;;;;;;;;;;;;;23.16;58.87;96035.88;10380765;28;1965;-67
2023/08/16 06:01:59;;;;;;;;;;;;;;;23.11;59.13;96041.22;10394378;28;2141;-65
2023/08/16 06:07:00;;;;;;;;;;;;;;;22.94;58.98;96032.94;10389470;28;2083;-66
2023/08/16 06:12:00;;;;;;;;;;;;;;;22.89;58.93;96036.47;10399843;28;2330;-65
2023/08/16 06:17:00;;;;;;;;;;;;;;;22.85;59.29;96037.28;10393300;28;1915;-66
2023/08/16 06:22:01;;;;;;;;;;;;;;;22.91;59.37;96033.53;10391976;28;1967;-69
2023/08/16 06:27:01;;;;;;;;;;;;;;;22.86;59.29;96041.50;10394463;28;2055;-66
2023/08/16 06:32:01;;;;;;;;;;;;;;;22.81;59.22;96039.72;10381881;28;2248;-67
2023/08/16 06:37:02;;;;;;;;;;;;;;;22.87;59.24;96041.22;10395804;28;2024;-67
2023/08/16 06:42:03;;;;;;;;;;;;;;;22.91;59.45;96038.81;10397876;28;4525;-69
2023/08/16 06:47:03;;;;;;;;;;;;;;;22.98;59.19;96037.38;10408942;28;1937;-68
2023/08/16 06:52:03;;;;;;;;;;;;;;;22.99;59.19;96033.69;10397759;28;1943;-68
2023/08/16 06:57:05;;;;;;;;;;;;;;;22.97;58.73;96035.84;10395712;28;1906;-69
2023/08/16 07:02:05;;;;;;;;;;;;;;;23.04;58.83;96030.97;10402146;28;1921;-68
2023/08/16 07:07:05;;;;;;;;;;;;;;;23.13;58.97;96028.50;10402426;28;2109;-68
2023/08/16 07:12:06;;;;;;;;;;;;;;;23.14;58.89;96030.84;10396068;28;2402;-68
2023/08/16 07:17:06;;;;;;;;;;;;;;;23.17;58.61;96018.94;10399496;28;1958;-69
2023/08/16 07:22:06;;;;;;;;;;;;;;;23.23;58.67;96020.44;10401449;28;2106;-68
2023/08/16 07:27:07;;;;;;;;;;;;;;;23.26;58.55;96023.31;10405406;28;1947;-68
2023/08/16 07:32:07;;;;;;;;;;;;;;;23.33;58.23;96030.91;10388211;28;1902;-68
2023/08/16 07:37:08;;;;;;;;;;;;;;;23.36;58.29;96027.72;10398191;28;1962;-68
2023/08/16 07:42:08;;;;;;;;;;;;;;;23.36;57.69;96035.66;10394130;28;1956;-68
2023/08/16 07:47:11;;;;;;;;;;;;;;;23.44;57.89;96045.59;10399986;28;1977;-68
2023/08/16 07:52:11;;;;;;;;;;;;;;;23.46;58.12;96046.09;10388911;28;2079;-67
2023/08/16 07:57:11;;;;;;;;;;;;;;;23.52;57.95;96052.91;10388738;28;2105;-68
2023/08/16 08:02:11;;;;;;;;;;;;;;;23.56;57.93;96035.38;10393802;28;1953;-68
2023/08/16 08:07:12;;;;;;;;;;;;;;;23.60;57.68;96039.03;10389870;28;2268;-69
2023/08/16 08:12:13;;;;;;;;;;;;;;;23.62;57.22;96033.47;10386480;28;2187;-68
2023/08/16 08:17:13;;;;;;;;;;;;;;;23.67;57.33;96033.38;10402894;28;2245;-67
2023/08/16 08:22:14;;;;;;;;;;;;;;;23.71;57.72;96023.81;10399594;28;1981;-69
2023/08/16 08:27:14;;;;;;;;;;;;;;;23.73;57.19;96021.66;10390523;28;1888;-68
2023/08/16 08:32:14;;;;;;;;;;;;;;;23.76;56.96;96021.84;10393742;28;2120;-69
2023/08/16 08:37:14;;;;;;;;;;;;;;;23.78;57.43;96027.66;10387585;28;1951;-68
2023/08/16 08:42:16;;;;;;;;;;;;;;;23.82;57.23;96030.53;10391373;28;1971;-66
2023/08/16 08:47:16;;;;;;;;;;;;;;;23.85;57.55;96038.69;10392507;28;2107;-69
2023/08/16 08:52:16;;;;;;;;;;;;;;;23.89;57.60;96037.03;10389020;28;1915;-68
2023/08/16 08:57:17;;;;;;;;;;;;;;;23.92;57.61;96033.81;10384815;28;2236;-66
2023/08/16 09:02:17;;;;;;;;;;;;;;;23.95;57.42;96033.22;10395878;28;2616;-67
2023/08/16 09:07:18;;;;;;;;;;;;;;;23.97;57.19;96039.03;10397350;28;2099;-65
2023/08/16 09:12:19;;;;;;;;;;;;;;;23.99;57.24;96034.22;10399446;28;2114;-67
2023/08/16 09:17:19;;;;;;;;;;;;;;;24.04;57.34;96036.03;10382596;28;2250;-69
2023/08/16 09:22:20;;;;;;;;;;;;;;;24.06;57.39;96024.09;10397661;28;1996;-67
2023/08/16 09:27:22;;;;;;;;;;;;;;;24.08;57.22;96026.44;10376461;28;1992;-68
2023/08/16 09:32:23;;;;;;;;;;;;;;;24.11;57.45;96028.53;10391347;28;2030;-65
2023/08/16 09:37:23;;;;;;;;;;;;;;;24.14;56.98;96017.34;10384406;28;2053;-66
2023/08/16 09:42:30;;;;;;;;;;;;;;;24.15;57.19;96018.94;10396779;28;4514;-65
2023/08/16 09:47:31;;;;;;;;;;;;;;;24.16;57.18;96021.28;10389936;28;2108;-65
2023/08/16 09:52:31;;;;;;;;;;;;;;;24.18;57.38;96016.47;10397062;28;2160;-66
2023/08/16 09:57:32;;;;;;;;;;;;;;;24.23;56.89;96028.88;10376578;28;2284;-68
2023/08/16 10:02:32;;;;;;;;;;;;;;;24.25;56.63;96022.19;10396569;28;2046;-66
2023/08/16 10:07:32;;;;;;;;;;;;;;;24.24;56.47;96020.63;10393505;28;1959;-66
2023/08/16 10:12:34;;;;;;;;;;;;;;;24.28;56.66;96015.50;10384159;28;1884;-66
2023/08/16 10:17:41;;;;;;;;;;;;;;;24.30;56.28;96000.13;10396043;28;1990;-65
2023/08/16 10:22:41;;;;;;;;;;;;;;;24.34;55.95;96003.00;10392996;28;1973;-65
2023/08/16 10:27:43;;;;;;;;;;;;;;;24.40;55.97;96007.13;10394137;28;1915;-69
2023/08/16 10:32:43;;;;;;;;;;;;;;;24.51;55.06;95996.03;10409355;28;1964;-72
2023/08/16 10:37:46;;;;;;;;;;;;;;;24.46;55.48;96000.66;10383847;28;2084;-66
2023/08/16 10:42:56;;;;;;;;;;;;;;;24.51;55.25;96000.56;10393052;28;4549;-67
2023/08/16 10:47:57;;;;;;;;;;;;;;;24.47;55.45;95991.63;10393286;28;1969;-66
2023/08/16 10:52:58;;;;;;;;;;;;;;;24.46;55.68;95988.16;10395370;28;2816;-66
2023/08/16 10:57:58;;;;;;;;;;;;;;;24.47;55.57;95988.97;10392537;28;1971;-67
2023/08/16 11:03:00;;;;;;;;;;;;;;;24.53;54.57;95977.19;10389419;28;1887;-66
2023/08/16 11:08:03;;;;;;;;;;;;;;;24.51;55.32;95963.44;10398170;28;2077;-65
2023/08/16 11:13:07;;;;;;;;;;;;;;;24.51;55.06;95968.75;10400305;28;1897;-66
2023/08/16 11:18:08;;;;;;;;;;;;;;;24.49;55.20;95971.69;10399604;28;2091;-66
2023/08/16 11:23:08;;;;;;;;;;;;;;;24.51;54.90;95966.09;10393008;28;1978;-66
2023/08/16 11:28:08;;;;;;;;;;;;;;;24.50;54.86;95961.88;10402605;28;2137;-66
2023/08/16 11:33:15;;;;;;;;;;;;;;;24.49;54.85;95969.06;10405204;28;1822;-65
2023/08/16 11:38:16;;;;;;;;;;;;;;;24.53;54.23;95958.63;10394985;28;1946;-68
2023/08/16 11:43:16;;;;;;;;;;;;;;;24.55;54.56;95959.13;10398018;28;4568;-69
2023/08/16 11:48:16;;;;;;;;;;;;;;;24.55;55.13;95951.97;10398544;28;1798;-69
2023/08/16 11:53:17;;;;;;;;;;;;;;;24.57;55.20;95944.50;10410829;28;2368;-72
2023/08/16 11:58:17;;;;;;;;;;;;;;;24.59;55.47;95941.56;10403052;28;1999;-69
2023/08/16 12:03:18;;;;;;;;;;;;;;;24.64;55.32;95944.13;10397219;28;1852;-70
2023/08/16 12:08:21;;;;;;;;;;;;;;;24.64;55.31;95947.56;10401811;28;1872;-67
2023/08/16 12:13:22;;;;;;;;;;;;;;;24.64;55.37;95936.19;10398218;28;2032;-68
2023/08/16 12:18:22;;;;;;;;;;;;;;;24.67;55.41;95940.88;10404015;28;1918;-66
2023/08/16 12:23:23;;;;;;;;;;;;;;;24.69;55.06;95928.13;10381745;28;1939;-65
2023/08/16 12:28:23;;;;;;;;;;;;;;;24.68;55.21;95932.66;10395915;28;1972;-66
2023/08/16 12:33:23;;;;;;;;;;;;;;;24.70;55.39;95929.69;10400511;28;2031;-66
2023/08/16 12:38:24;;;;;;;;;;;;;;;24.74;55.21;95933.34;10398552;28;1924;-65
2023/08/16 12:43:24;;;;;;;;;;;;;;;24.73;55.31;95921.16;10394174;28;4474;-64
2023/08/16 12:48:24;;;;;;;;;;;;;;;24.74;55.29;95915.59;10399186;28;1814;-65
2023/08/16 12:53:25;;;;;;;;;;;;;;;24.76;54.62;95924.03;10403567;28;1824;-66
2023/08/16 12:58:25;;;;;;;;;;;;;;;24.76;54.65;95917.94;10404180;28;1918;-64
2023/08/16 13:03:26;;;;;;;;;;;;;;;24.77;54.87;95912.31;10404761;28;1907;-65
2023/08/16 13:08:26;;;;;;;;;;;;;;;24.79;55.27;95907.50;10398448;28;1850;-66
2023/08/16 13:13:26;;;;;;;;;;;;;;;24.84;54.83;95906.63;10404507;28;1825;-65
2023/08/16 13:18:27;;;;;;;;;;;;;;;24.84;54.98;95893.38;10394609;28;1911;-65
2023/08/16 13:23:28;;;;;;;;;;;;;;;24.85;54.78;95895.72;10396922;28;1912;-66
2023/08/16 13:28:28;;;;;;;;;;;;;;;24.89;54.71;95896.69;10394655;28;2092;-65
2023/08/16 13:33:28;;;;;;;;;;;;;;;24.87;54.92;95887.50;10400133;28;1893;-65
2023/08/16 13:38:28;;;;;;;;;;;;;;;24.88;54.51;95878.44;10398662;28;2053;-65
2023/08/16 13:43:29;;;;;;;;;;;;;;;24.88;54.21;95879.22;10399968;28;2057;-65
2023/08/16 13:48:29;;;;;;;;;;;;;;;24.87;54.39;95877.66;10402861;28;1813;-64
2023/08/16 13:53:29;;;;;;;;;;;;;;;24.87;54.28;95880.31;10396745;28;1861;-65
2023/08/16 13:58:31;;;;;;;;;;;;;;;24.86;53.98;95872.66;10399097;28;1977;-65
2023/08/16 14:03:31;;;;;;;;;;;;;;;24.88;53.44;95879.22;10389301;28;1836;-65
2023/08/16 14:08:31;;;;;;;;;;;;;;;24.89;53.54;95862.22;10399424;28;1802;-66
2023/08/16 14:13:32;;;;;;;;;;;;;;;24.90;53.34;95855.06;10392297;28;1880;-66
2023/08/16 14:18:33;;;;;;;;;;;;;;;24.90;54.50;95849.75;10398960;28;1906;-65
2023/08/16 14:23:33;;;;;;;;;;;;;;;24.89;55.14;95848.97;10394573;28;1849;-65
2023/08/16 14:28:33;;;;;;;;;;;;;;;24.92;55.16;95848.38;10394937;28;1853;-65
2023/08/16 14:33:33;;;;;;;;;;;;;;;24.93;55.45;95843.88;10392094;28;1834;-69
2023/08/16 14:38:34;;;;;;;;;;;;;;;24.94;55.49;95840.13;10392689;28;2423;-69
2023/08/16 14:43:34;;;;;;;;;;;;;;;24.94;55.50;95834.81;10404211;28;4454;-67
2023/08/16 14:48:34;;;;;;;;;;;;;;;24.96;54.78;95845.91;10399581;28;2008;-68
2023/08/16 14:53:34;;;;;;;;;;;;;;;24.95;54.88;95825.78;10394375;28;2063;-66
2023/08/16 14:58:35;;;;;;;;;;;;;;;24.94;54.31;95813.59;10394177;28;1914;-67
2023/08/16 15:03:35;;;;;;;;;;;;;;;24.93;54.22;95823.44;10396377;28;2075;-65
2023/08/16 15:08:36;;;;;;;;;;;;;;;24.94;54.46;95818.91;10404894;28;1833;-65
2023/08/16 15:13:36;;;;;;;;;;;;;;;24.96;53.56;95816.75;10405799;28;1885;-66
2023/08/16 15:18:36;;;;;;;;;;;;;;;24.96;53.54;95800.81;10402207;28;1954;-66
2023/08/16 15:23:38;;;;;;;;;;;;;;;24.94;53.08;95803.00;10402581;28;2007;-67
2023/08/16 15:28:39;;;;;;;;;;;;;;;24.91;53.18;95795.66;10406038;28;1757;-66
2023/08/16 15:33:39;;;;;;;;;;;;;;;24.93;53.15;95796.94;10402097;28;2022;-67
2023/08/16 15:38:44;;;;;;;;;;;;;;;24.92;52.69;95783.94;10410659;28;2689;-67
2023/08/16 15:43:44;;;;;;;;;;;;;;;24.94;52.94;95792.38;10417299;28;1838;-65
2023/08/16 15:48:45;;;;;;;;;;;;;;;24.95;52.84;95788.66;10417735;28;1916;-67
2023/08/16 15:53:45;;;;;;;;;;;;;;;24.94;52.99;95779.13;10409337;28;1830;-67
2023/08/16 15:58:45;;;;;;;;;;;;;;;24.93;53.10;95778.38;10412408;28;1906;-67
2023/08/16 16:03:45;;;;;;;;;;;;;;;24.95;53.13;95770.91;10410594;28;1877;-67
2023/08/16 16:08:47;;;;;;;;;;;;;;;24.95;53.22;95778.06;10406218;28;1999;-67
2023/08/16 16:13:47;;;;;;;;;;;;;;;24.96;53.28;95780.41;10407918;28;1888;-66
2023/08/16 16:18:47;;;;;;;;;;;;;;;24.96;53.17;95796.31;10408956;28;1969;-67
2023/08/16 16:23:47;;;;;;;;;;;;;;;24.96;53.21;95779.63;10408827;28;1913;-67
2023/08/16 16:28:48;;;;;;;;;;;;;;;24.97;53.41;95797.91;10402164;28;1821;-67
2023/08/16 16:33:48;;;;;;;;;;;;;;;24.97;53.22;95787.28;10404702;28;1897;-67
2023/08/16 16:38:48;;;;;;;;;;;;;;;24.98;53.42;95788.84;10406541;28;1914;-67
2023/08/16 16:43:49;;;;;;;;;;;;;;;24.98;53.05;95786.19;10406874;28;4621;-67
2023/08/16 16:48:50;;;;;;;;;;;;;;;24.97;52.85;95792.59;10411276;28;1848;-67
2023/08/16 16:53:51;;;;;;;;;;;;;;;24.97;52.56;95786.50;10405465;28;1959;-66
2023/08/16 16:58:51;;;;;;;;;;;;;;;24.98;52.62;95798.66;10407899;28;2113;-67
2023/08/16 17:03:51;;;;;;;;;;;;;;;24.98;52.84;95798.66;10402370;28;1963;-67
2023/08/16 17:08:51;;;;;;;;;;;;;;;24.96;52.91;95806.94;10397859;28;1841;-68
2023/08/16 17:13:52;;;;;;;;;;;;;;;24.98;53.11;95799.44;10413630;28;2133;-69
2023/08/16 17:18:52;;;;;;;;;;;;;;;24.99;53.18;95805.53;10414556;28;1914;-68
2023/08/16 17:23:52;;;;;;;;;;;;;;;25.00;53.73;95804.44;10412287;28;1554;-68
2023/08/16 17:28:52;;;;;;;;;;;;;;;25.01;53.84;95814.00;10413657;28;2415;-67
2023/08/16 17:33:53;;;;;;;;;;;;;;;25.02;54.11;95810.22;10410674;28;1495;-66
2023/08/16 17:38:53;;;;;;;;;;;;;;;25.04;54.14;95813.38;10406187;28;1910;-67
2023/08/16 17:43:53;;;;;;;;;;;;;;;25.04;54.20;95823.97;10404701;28;4577;-67
2023/08/16 17:48:54;;;;;;;;;;;;;;;25.05;54.21;95825.56;10408730;28;1661;-68
2023/08/16 17:53:54;;;;;;;;;;;;;;;25.06;54.41;95827.13;10404940;28;1470;-66
2023/08/16 17:58:54;;;;;;;;;;;;;;;25.08;54.38;95824.19;10406695;28;1914;-67
2023/08/16 18:03:55;;;;;;;;;;;;;;;25.08;54.31;95838.22;10413401;28;2020;-67
2023/08/16 18:08:55;;;;;;;;;;;;;;;25.09;54.42;95844.31;10410996;28;1356;-67
2023/08/16 18:13:55;;;;;;;;;;;;;;;25.08;54.53;95843.50;10410176;28;1608;-66
2023/08/16 18:18:55;;;;;;;;;;;;;;;25.10;54.62;95837.94;10407566;28;1926;-67
2023/08/16 18:23:56;;;;;;;;;;;;;;;25.09;54.65;95836.34;10408463;28;2285;-66
2023/08/16 18:28:56;;;;;;;;;;;;;;;25.10;54.70;95838.69;10403621;28;1993;-70
2023/08/16 18:33:57;;;;;;;;;;;;;;;25.11;54.82;95842.13;10398367;28;1880;-73
2023/08/16 18:38:58;;;;;;;;;;;;;;;25.11;55.02;95840.28;10406526;28;1906;-71
2023/08/16 18:43:58;;;;;;;;;;;;;;;25.11;55.21;95840.28;10407491;28;4490;-68
2023/08/16 18:48:58;;;;;;;;;;;;;;;25.12;55.24;95847.16;10402874;28;2096;-70
2023/08/16 18:53:58;;;;;;;;;;;;;;;25.12;55.22;95847.16;10395339;28;1901;-65
2023/08/16 18:58:59;;;;;;;;;;;;;;;25.11;55.35;95861.50;10409301;28;1980;-66
2023/08/16 19:03:59;;;;;;;;;;;;;;;25.12;55.43;95865.72;10410320;28;1856;-64
2023/08/16 19:08:59;;;;;;;;;;;;;;;25.12;55.52;95871.03;10406510;28;2179;-66
2023/08/16 19:13:59;;;;;;;;;;;;;;;25.13;55.53;95880.56;10419132;28;2134;-65
2023/08/16 19:19:00;;;;;;;;;;;;;;;25.13;55.57;95874.44;10410441;28;2028;-65
2023/08/16 19:24:01;;;;;;;;;;;;;;;25.12;55.50;95872.91;10410520;28;1892;-65
2023/08/16 19:29:01;;;;;;;;;;;;;;;25.12;55.64;95875.56;10406537;28;1952;-65
2023/08/16 19:34:01;;;;;;;;;;;;;;;25.11;55.33;95871.31;10410194;28;1814;-66
2023/08/16 19:39:01;;;;;;;;;;;;;;;25.11;55.47;95876.63;10396482;28;1976;-73
2023/08/16 19:44:02;;;;;;;;;;;;;;;25.08;55.09;95874.59;10379570;28;1973;-74
2023/08/16 19:49:02;;;;;;;;;;;;;;;25.06;55.21;95877.50;10398266;28;1943;-73
2023/08/16 19:54:03;;;;;;;;;;;;;;;25.04;55.11;95869.06;10404163;28;1913;-70
2023/08/16 19:59:03;;;;;;;;;;;;;;;25.01;55.17;95869.69;10407583;28;2098;-71
2023/08/16 20:04:04;;;;;;;;;;;;;;;24.99;55.06;95869.19;10405219;28;1881;-71
2023/08/16 20:09:04;;;;;;;;;;;;;;;24.99;55.14;95879.81;10405599;28;1872;-70
2023/08/16 20:14:05;;;;;;;;;;;;;;;24.96;54.89;95875.09;10408688;28;1889;-72
2023/08/16 20:19:05;;;;;;;;;;;;;;;24.98;55.37;95878.22;10398961;28;2205;-71
2023/08/16 20:24:05;;;;;;;;;;;;;;;24.96;55.17;95877.72;10398490;28;1895;-71
2023/08/16 20:29:06;;;;;;;;;;;;;;;24.94;55.19;95893.16;10384334;28;2040;-72
2023/08/16 20:34:06;;;;;;;;;;;;;;;24.96;55.21;95891.00;10393272;28;1916;-67
2023/08/16 20:39:07;;;;;;;;;;;;;;;24.96;55.33;95886.47;10392272;28;1910;-69
2023/08/16 20:44:08;;;;;;;;;;;;;;;24.91;55.05;95891.91;10397343;28;1993;-68
2023/08/16 20:49:11;;;;;;;;;;;;;;;24.92;55.27;95890.81;10399051;28;1865;-67
2023/08/16 20:54:11;;;;;;;;;;;;;;;24.91;55.33;95891.91;10405961;28;1871;-66
2023/08/16 20:59:11;;;;;;;;;;;;;;;24.87;55.09;95879.53;10403738;28;1918;-67
2023/08/16 21:04:12;;;;;;;;;;;;;;;24.85;55.17;95873.75;10406839;28;1814;-67
2023/08/16 21:09:12;;;;;;;;;;;;;;;24.78;55.15;95863.53;10375590;28;1831;-67
2023/08/16 21:14:12;;;;;;;;;;;;;;;24.76;55.16;95843.72;10404989;28;2248;-67
2023/08/16 21:19:12;;;;;;;;;;;;;;;24.75;54.91;95850.09;10399185;28;2134;-67
2023/08/16 21:24:13;;;;;;;;;;;;;;;24.77;55.17;95845.28;10394216;28;1926;-67
2023/08/16 21:29:13;;;;;;;;;;;;;;;24.79;55.09;95832.53;10390491;28;1908;-69
2023/08/16 21:34:14;;;;;;;;;;;;;;;24.78;55.13;95825.63;10398115;28;1892;-69
2023/08/16 21:39:14;;;;;;;;;;;;;;;24.74;55.26;95819.38;10400322;28;2050;-68
2023/08/16 21:44:14;;;;;;;;;;;;;;;24.72;55.04;95816.97;10406228;28;1833;-67
2023/08/16 21:49:15;;;;;;;;;;;;;;;24.71;55.26;95817.28;10395292;28;1933;-67
2023/08/16 21:54:15;;;;;;;;;;;;;;;24.73;55.27;95823.09;10394696;28;1944;-68
2023/08/16 21:59:17;;;;;;;;;;;;;;;24.74;55.29;95824.66;10403487;28;1961;-67
2023/08/16 22:04:17;;;;;;;;;;;;;;;24.72;55.33;95837.41;10401795;28;1888;-67
2023/08/16 22:09:18;;;;;;;;;;;;;;;24.70;55.41;95827.09;10390175;28;2242;-67
2023/08/16 22:14:18;;;;;;;;;;;;;;;24.72;55.45;95816.19;10408655;28;1857;-67
2023/08/16 22:19:18;;;;;;;;;;;;;;;24.73;55.58;95820.44;10403715;28;1963;-67
2023/08/16 22:24:19;;;;;;;;;;;;;;;24.71;55.40;95802.16;10405002;28;1833;-67
2023/08/16 22:29:19;;;;;;;;;;;;;;;24.69;55.48;95799.00;10397183;28;1872;-67
2023/08/16 22:34:21;;;;;;;;;;;;;;;24.67;55.58;95803.81;10397130;28;1805;-66
2023/08/16 22:39:21;;;;;;;;;;;;;;;24.67;55.60;95803.03;10407134;28;2102;-67
2023/08/16 22:44:21;;;;;;;;;;;;;;;24.70;55.50;95807.75;10402294;28;4520;-67
2023/08/16 22:49:22;;;;;;;;;;;;;;;24.69;55.40;95803.56;10398884;28;1979;-67
2023/08/16 22:54:22;;;;;;;;;;;;;;;24.70;55.39;95813.84;10407170;28;1911;-67
2023/08/16 22:59:23;;;;;;;;;;;;;;;24.70;55.60;95805.09;10406444;28;1922;-67
2023/08/16 23:04:23;;;;;;;;;;;;;;;24.68;55.37;95805.41;10405282;28;2477;-66
2023/08/16 23:09:23;;;;;;;;;;;;;;;24.69;55.65;95806.19;10390143;28;1861;-67
2023/08/16 23:14:23;;;;;;;;;;;;;;;24.71;55.68;95807.44;10390402;28;1943;-67
2023/08/16 23:19:24;;;;;;;;;;;;;;;24.70;55.64;95807.75;10403280;28;2006;-66
2023/08/16 23:24:24;;;;;;;;;;;;;;;24.69;55.57;95806.97;10414292;28;1864;-66
2023/08/16 23:29:24;;;;;;;;;;;;;;;24.71;55.55;95801.38;10416556;28;1908;-67
2023/08/16 23:34:24;;;;;;;;;;;;;;;24.69;55.56;95798.25;10409581;28;1895;-67
2023/08/16 23:39:25;;;;;;;;;;;;;;;24.68;55.69;95799.31;10411756;28;2037;-67
2023/08/16 23:44:26;;;;;;;;;;;;;;;24.67;55.52;95790.56;10419509;28;1922;-67
2023/08/16 23:49:26;;;;;;;;;;;;;;;24.68;55.73;95784.22;10413041;28;1872;-67
2023/08/16 23:54:28;;;;;;;;;;;;;;;24.68;55.61;95788.72;10398609;28;1885;-66
2023/08/16 23:59:28;;;;;;;;;;;;;;;24.66;55.78;95785.59;10406011;28;2023;-66
